Time,TemperatureF,DewpointF,PressureIn,WindDirection,WindDirectionDegrees,WindSpeedMPH,WindSpeedGustMPH,Humidity,HourlyPrecipIn,Conditions,Clouds,dailyrainin,SolarRadiationWatts/m^2,SoftwareType,DateUTC
2013-10-14 00:02:00,33.0,28.0,-100.00,ENE,68,2.0,3.0,81,0.00,,,0.00,0.000000,,2013-10-14 06:02:00,
2013-10-14 00:12:00,33.0,28.0,-100.00,ENE,68,2.0,3.0,81,0.00,,,0.00,0.000000,,2013-10-14 06:12:00,
2013-10-14 00:42:00,33.0,28.0,-100.00,SSW,213,2.0,7.0,82,0.00,,,0.00,0.000000,,2013-10-14 06:42:00,
2013-10-14 00:52:00,33.0,28.0,-100.00,SSW,213,2.0,7.0,82,0.00,,,0.00,0.000000,,2013-10-14 06:52:00,
2013-10-14 01:01:00,33.0,28.0,-100.00,SSW,213,2.0,7.0,82,0.00,,,0.00,0.000000,,2013-10-14 07:01:00,
2013-10-14 01:11:00,33.0,28.0,-100.00,SSW,213,2.0,7.0,82,0.00,,,0.00,0.000000,,2013-10-14 07:11:00,
2013-10-14 01:42:00,33.0,27.0,-100.00,SW,230,1.0,4.0,77,0.00,,,0.00,0.000000,,2013-10-14 07:42:00,
2013-10-14 01:52:00,33.0,27.0,-100.00,SW,230,1.0,4.0,77,0.00,,,0.00,0.000000,,2013-10-14 07:52:00,
2013-10-14 02:02:00,33.0,27.0,-100.00,SW,230,1.0,4.0,77,0.00,,,0.00,0.000000,,2013-10-14 08:02:00,
2013-10-14 02:12:00,33.0,27.0,-100.00,SW,230,1.0,4.0,77,0.00,,,0.00,0.000000,,2013-10-14 08:12:00,
2013-10-14 02:42:00,31.0,24.0,-100.00,WSW,254,1.0,4.0,74,0.00,,,0.00,0.000000,,2013-10-14 08:42:00,
2013-10-14 02:52:00,31.0,24.0,-100.00,WSW,254,1.0,4.0,74,0.00,,,0.00,0.000000,,2013-10-14 08:52:00,
2013-10-14 03:01:00,31.0,24.0,-100.00,WSW,254,1.0,4.0,74,0.00,,,0.00,0.000000,,2013-10-14 09:01:00,
2013-10-14 03:11:00,31.0,24.0,-100.00,WSW,254,1.0,4.0,74,0.00,,,0.00,0.000000,,2013-10-14 09:11:00,
2013-10-14 03:43:00,31.0,23.0,-100.00,NW,317,1.0,4.0,73,0.00,,,0.00,0.000000,,2013-10-14 09:43:00,
2013-10-14 03:53:00,31.0,23.0,-100.00,NW,317,1.0,4.0,73,0.00,,,0.00,0.000000,,2013-10-14 09:53:00,
2013-10-14 04:03:00,31.0,23.0,-100.00,NW,317,1.0,4.0,73,0.00,,,0.00,0.000000,,2013-10-14 10:03:00,
2013-10-14 04:12:00,31.0,23.0,-100.00,NW,317,1.0,4.0,73,0.00,,,0.00,0.000000,,2013-10-14 10:12:00,
2013-10-14 04:42:00,31.0,25.0,-100.00,WNW,292,1.0,3.0,77,0.00,,,0.00,0.000000,,2013-10-14 10:42:00,
2013-10-14 04:53:00,31.0,25.0,-100.00,WNW,292,1.0,3.0,77,0.00,,,0.00,0.000000,,2013-10-14 10:53:00,
2013-10-14 05:02:00,31.0,25.0,-100.00,WNW,292,1.0,3.0,77,0.00,,,0.00,0.000000,,2013-10-14 11:02:00,
2013-10-14 05:11:00,31.0,25.0,-100.00,WNW,292,1.0,3.0,77,0.00,,,0.00,0.000000,,2013-10-14 11:11:00,
2013-10-14 05:42:00,31.0,24.0,-100.00,East,81,1.0,3.0,74,0.00,,,0.00,0.000000,,2013-10-14 11:42:00,
2013-10-14 05:52:00,31.0,24.0,-100.00,East,81,1.0,3.0,74,0.00,,,0.00,0.000000,,2013-10-14 11:52:00,
2013-10-14 06:02:00,31.0,24.0,-100.00,East,81,1.0,3.0,74,0.00,,,0.00,0.000000,,2013-10-14 12:02:00,
2013-10-14 06:12:00,31.0,24.0,-100.00,East,81,1.0,3.0,74,0.00,,,0.00,0.000000,,2013-10-14 12:12:00,
2013-10-14 06:42:00,30.0,24.0,-100.00,West,268,1.0,2.0,79,0.00,,,0.00,0.000000,,2013-10-14 12:42:00,
2013-10-14 06:52:00,30.0,24.0,-100.00,West,268,1.0,2.0,79,0.00,,,0.00,0.000000,,2013-10-14 12:52:00,
2013-10-14 07:02:00,30.0,24.0,-100.00,West,268,1.0,2.0,79,0.00,,,0.00,0.000000,,2013-10-14 13:02:00,
2013-10-14 07:11:00,30.0,24.0,-100.00,West,268,1.0,2.0,79,0.00,,,0.00,0.000000,,2013-10-14 13:11:00,
2013-10-14 07:42:00,29.0,25.0,-100.00,NW,318,1.0,2.0,84,0.00,,,0.00,0.000000,,2013-10-14 13:42:00,
2013-10-14 07:52:00,29.0,25.0,-100.00,NW,318,1.0,2.0,84,0.00,,,0.00,0.000000,,2013-10-14 13:52:00,
2013-10-14 08:02:00,29.0,25.0,-100.00,NW,318,1.0,2.0,84,0.00,,,0.00,0.000000,,2013-10-14 14:02:00,
2013-10-14 08:11:00,29.0,25.0,-100.00,NW,318,1.0,2.0,84,0.00,,,0.00,0.000000,,2013-10-14 14:11:00,
2013-10-14 08:42:00,29.0,23.0,-100.00,NNE,17,1.0,2.0,78,0.00,,,0.00,0.000000,,2013-10-14 14:42:00,
2013-10-14 08:52:00,29.0,23.0,-100.00,NNE,17,1.0,2.0,78,0.00,,,0.00,0.000000,,2013-10-14 14:52:00,
2013-10-14 09:01:00,29.0,23.0,-100.00,NNE,17,1.0,2.0,78,0.00,,,0.00,0.000000,,2013-10-14 15:01:00,
2013-10-14 09:11:00,29.0,23.0,-100.00,NNE,17,1.0,2.0,78,0.00,,,0.00,0.000000,,2013-10-14 15:11:00,
2013-10-14 09:44:00,29.0,25.0,-100.00,WSW,245,1.0,2.0,86,0.00,,,0.00,5.000000,,2013-10-14 15:44:00,
2013-10-14 09:54:00,29.0,25.0,-100.00,WSW,245,1.0,2.0,86,0.00,,,0.00,5.000000,,2013-10-14 15:54:00,
2013-10-14 10:03:00,29.0,25.0,-100.00,WSW,245,1.0,2.0,86,0.00,,,0.00,5.000000,,2013-10-14 16:03:00,
2013-10-14 10:13:00,29.0,25.0,-100.00,WSW,245,1.0,2.0,86,0.00,,,0.00,5.000000,,2013-10-14 16:13:00,
2013-10-14 10:43:00,32.0,26.0,-100.00,SSW,213,2.0,4.0,77,0.00,,,0.00,91.000000,,2013-10-14 16:43:00,
2013-10-14 10:53:00,32.0,26.0,-100.00,SSW,213,2.0,4.0,77,0.00,,,0.00,91.000000,,2013-10-14 16:53:00,
2013-10-14 11:02:00,32.0,26.0,-100.00,SSW,213,2.0,4.0,77,0.00,,,0.00,91.000000,,2013-10-14 17:02:00,
2013-10-14 11:11:00,32.0,26.0,-100.00,SSW,213,2.0,4.0,77,0.00,,,0.00,91.000000,,2013-10-14 17:11:00,
2013-10-14 11:42:00,30.0,23.0,-100.00,WNW,285,3.0,4.0,76,0.00,,,0.00,174.000000,,2013-10-14 17:42:00,
2013-10-14 11:52:00,30.0,23.0,-100.00,WNW,285,3.0,4.0,76,0.00,,,0.00,174.000000,,2013-10-14 17:52:00,
2013-10-14 12:01:00,30.0,23.0,-100.00,WNW,285,3.0,4.0,76,0.00,,,0.00,174.000000,,2013-10-14 18:01:00,
2013-10-14 12:12:00,30.0,23.0,-100.00,WNW,285,3.0,4.0,76,0.00,,,0.00,174.000000,,2013-10-14 18:12:00,
2013-10-14 12:42:00,31.0,27.0,-100.00,WSW,242,2.0,4.0,86,0.00,,,0.00,122.000000,,2013-10-14 18:42:00,
2013-10-14 12:52:00,31.0,27.0,-100.00,WSW,242,2.0,4.0,86,0.00,,,0.00,122.000000,,2013-10-14 18:52:00,
2013-10-14 13:01:00,31.0,27.0,-100.00,WSW,242,2.0,4.0,86,0.00,,,0.00,122.000000,,2013-10-14 19:01:00,
2013-10-14 13:11:00,31.0,27.0,-100.00,WSW,242,2.0,4.0,86,0.00,,,0.00,122.000000,,2013-10-14 19:11:00,
2013-10-14 13:42:00,35.0,29.0,-100.00,WSW,255,2.0,5.0,78,0.00,,,0.00,236.000000,,2013-10-14 19:42:00,
2013-10-14 13:52:00,35.0,29.0,-100.00,WSW,255,2.0,5.0,78,0.00,,,0.00,236.000000,,2013-10-14 19:52:00,
2013-10-14 14:02:00,35.0,29.0,-100.00,WSW,255,2.0,5.0,78,0.00,,,0.00,236.000000,,2013-10-14 20:02:00,
2013-10-14 14:11:00,35.0,29.0,-100.00,WSW,255,2.0,5.0,78,0.00,,,0.00,236.000000,,2013-10-14 20:11:00,
2013-10-14 14:43:00,36.0,28.0,-100.00,WSW,241,2.0,4.0,71,0.00,,,0.00,240.000000,,2013-10-14 20:43:00,
2013-10-14 14:52:00,36.0,28.0,-100.00,WSW,241,2.0,4.0,71,0.00,,,0.00,240.000000,,2013-10-14 20:52:00,
2013-10-14 15:02:00,36.0,28.0,-100.00,WSW,241,2.0,4.0,71,0.00,,,0.00,240.000000,,2013-10-14 21:02:00,
2013-10-14 15:12:00,36.0,28.0,-100.00,WSW,241,2.0,4.0,71,0.00,,,0.00,240.000000,,2013-10-14 21:12:00,
2013-10-14 15:44:00,36.0,25.0,-100.00,SW,219,3.0,6.0,64,0.00,,,0.00,192.000000,,2013-10-14 21:44:00,
2013-10-14 15:54:00,36.0,25.0,-100.00,SW,219,3.0,6.0,64,0.00,,,0.00,192.000000,,2013-10-14 21:54:00,
2013-10-14 16:04:00,36.0,25.0,-100.00,SW,219,3.0,6.0,64,0.00,,,0.00,192.000000,,2013-10-14 22:04:00,
2013-10-14 16:13:00,36.0,25.0,-100.00,SW,219,3.0,6.0,64,0.00,,,0.00,192.000000,,2013-10-14 22:13:00,
2013-10-14 16:43:00,36.0,26.0,-100.00,SSW,193,3.0,5.0,67,0.00,,,0.00,191.000000,,2013-10-14 22:43:00,
2013-10-14 16:54:00,36.0,26.0,-100.00,SSW,193,3.0,5.0,67,0.00,,,0.00,191.000000,,2013-10-14 22:54:00,
2013-10-14 17:03:00,36.0,26.0,-100.00,SSW,193,3.0,5.0,67,0.00,,,0.00,191.000000,,2013-10-14 23:03:00,
2013-10-14 17:12:00,36.0,26.0,-100.00,SSW,193,3.0,5.0,67,0.00,,,0.00,191.000000,,2013-10-14 23:12:00,
2013-10-14 17:42:00,32.0,27.0,-100.00,NE,46,2.0,6.0,80,0.00,,,0.00,116.000000,,2013-10-14 23:42:00,
2013-10-14 17:52:00,32.0,27.0,-100.00,NE,46,2.0,6.0,80,0.00,,,0.00,116.000000,,2013-10-14 23:52:00,
2013-10-14 18:02:00,32.0,27.0,-100.00,NE,46,2.0,6.0,80,0.00,,,0.00,116.000000,,2013-10-15 00:02:00,
2013-10-14 18:11:00,32.0,27.0,-100.00,NE,46,2.0,6.0,80,0.00,,,0.00,116.000000,,2013-10-15 00:11:00,
2013-10-14 18:42:00,34.0,27.0,-100.00,ESE,116,2.0,5.0,76,0.00,,,0.00,115.000000,,2013-10-15 00:42:00,
2013-10-14 18:52:00,34.0,27.0,-100.00,ESE,116,2.0,5.0,76,0.00,,,0.00,115.000000,,2013-10-15 00:52:00,
2013-10-14 19:01:00,34.0,27.0,-100.00,ESE,116,2.0,5.0,76,0.00,,,0.00,115.000000,,2013-10-15 01:01:00,
2013-10-14 19:11:00,34.0,27.0,-100.00,ESE,116,2.0,5.0,76,0.00,,,0.00,115.000000,,2013-10-15 01:11:00,
2013-10-14 19:42:00,30.0,27.0,-100.00,ENE,58,4.0,9.0,89,0.00,,,0.00,21.000000,,2013-10-15 01:42:00,
2013-10-14 19:52:00,30.0,27.0,-100.00,ENE,58,4.0,9.0,89,0.00,,,0.00,21.000000,,2013-10-15 01:52:00,
2013-10-14 20:02:00,30.0,27.0,-100.00,ENE,58,4.0,9.0,89,0.00,,,0.00,21.000000,,2013-10-15 02:02:00,
2013-10-14 20:12:00,30.0,27.0,-100.00,ENE,58,4.0,9.0,89,0.00,,,0.00,21.000000,,2013-10-15 02:12:00,
2013-10-14 20:42:00,30.0,27.0,-100.00,NE,54,3.0,6.0,89,0.00,,,0.00,5.000000,,2013-10-15 02:42:00,
2013-10-14 20:52:00,30.0,27.0,-100.00,NE,54,3.0,6.0,89,0.00,,,0.00,5.000000,,2013-10-15 02:52:00,
2013-10-14 21:02:00,30.0,27.0,-100.00,NE,54,3.0,6.0,89,0.00,,,0.00,5.000000,,2013-10-15 03:02:00,
2013-10-14 21:12:00,30.0,27.0,-100.00,NE,54,3.0,6.0,89,0.00,,,0.00,5.000000,,2013-10-15 03:12:00,
2013-10-14 21:14:00,29.0,24.0,-100.00,ENE,63,4.0,10.0,80,0.00,,,0.00,0.000000,,2013-10-15 03:14:00,
2013-10-14 21:44:00,29.0,24.0,-100.00,ENE,63,4.0,10.0,80,0.00,,,0.00,0.000000,,2013-10-15 03:44:00,
2013-10-14 21:55:00,29.0,24.0,-100.00,ENE,63,4.0,10.0,80,0.00,,,0.00,0.000000,,2013-10-15 03:55:00,
2013-10-14 22:04:00,29.0,24.0,-100.00,ENE,63,4.0,10.0,80,0.00,,,0.00,0.000000,,2013-10-15 04:04:00,
2013-10-14 22:43:00,29.0,25.0,-100.00,ENE,68,5.0,10.0,84,0.00,,,0.00,0.000000,,2013-10-15 04:43:00,
2013-10-14 22:54:00,29.0,25.0,-100.00,ENE,68,5.0,10.0,84,0.00,,,0.00,0.000000,,2013-10-15 04:54:00,
2013-10-14 23:03:00,29.0,25.0,-100.00,ENE,68,5.0,10.0,84,0.00,,,0.00,0.000000,,2013-10-15 05:03:00,
2013-10-14 23:12:00,29.0,25.0,-100.00,ENE,68,5.0,10.0,84,0.00,,,0.00,0.000000,,2013-10-15 05:12:00,
2013-10-14 23:42:00,29.0,25.0,-100.00,ENE,77,4.0,7.0,86,0.00,,,0.00,0.000000,,2013-10-15 05:42:00,
2013-10-14 23:53:00,29.0,25.0,-100.00,ENE,77,4.0,7.0,86,0.00,,,0.00,0.000000,,2013-10-15 05:53:00,